createdAt,value
2019-03-03T00:04:24.230Z,24.33
2019-03-03T00:09:25.849Z,21.37
2019-03-03T00:14:27.449Z,13.97
2019-03-03T00:19:29.291Z,17.97
2019-03-03T00:24:30.938Z,14.90
2019-03-03T00:29:32.451Z,13.23
2019-03-03T00:34:34.044Z,18.13
2019-03-03T00:39:35.587Z,19.10
2019-03-03T00:44:37.138Z,13.40
2019-03-03T00:49:39.125Z,16.37
2019-03-03T00:54:40.676Z,14.53
2019-03-03T00:59:42.319Z,14.50
2019-03-03T01:04:43.911Z,13.80
2019-03-03T01:09:45.477Z,19.93
2019-03-03T01:14:47.030Z,15.57
2019-03-03T01:19:48.600Z,19.13
2019-03-03T01:24:50.292Z,16.77
2019-03-03T01:29:51.860Z,15.30
2019-03-03T01:34:53.753Z,16.87
2019-03-03T01:39:55.794Z,15.40
2019-03-03T01:44:57.364Z,16.07
2019-03-03T01:49:59.290Z,16.53
2019-03-03T01:55:00.842Z,17.60
2019-03-03T02:00:02.844Z,21.50
2019-03-03T02:05:04.610Z,17.40
2019-03-03T02:10:06.418Z,16.63
2019-03-03T02:15:08.279Z,19.43
2019-03-03T02:20:10.008Z,16.43
2019-03-03T02:25:11.598Z,19.23
2019-03-03T02:30:14.870Z,18.80
2019-03-03T02:35:16.394Z,19.00
2019-03-03T02:40:18.082Z,15.77
2019-03-03T02:45:20.026Z,23.60
2019-03-03T02:50:22.013Z,20.30
2019-03-03T02:55:23.622Z,22.97
2019-03-03T03:00:25.270Z,18.70
2019-03-03T03:05:26.800Z,24.13
2019-03-03T03:10:28.347Z,22.80
2019-03-03T03:15:29.942Z,18.43
2019-03-03T03:20:31.567Z,23.03
2019-03-03T03:25:33.161Z,19.33
2019-03-03T03:30:34.783Z,23.70
2019-03-03T03:35:36.698Z,22.13
2019-03-03T03:40:38.546Z,20.73
2019-03-03T03:45:40.140Z,22.73
2019-03-03T03:50:41.651Z,24.63
2019-03-03T03:55:43.254Z,28.97
2019-03-03T04:00:44.802Z,22.77
2019-03-03T04:05:46.791Z,28.97
2019-03-03T04:10:48.383Z,24.87
2019-03-03T04:15:50.340Z,27.07
2019-03-03T04:20:52.364Z,24.37
2019-03-03T04:25:53.891Z,24.27
2019-03-03T04:30:55.553Z,30.47
2019-03-03T04:35:57.437Z,23.57
2019-03-03T04:40:59.043Z,24.20
2019-03-03T04:46:00.575Z,29.70
2019-03-03T04:51:02.194Z,23.80
2019-03-03T04:56:03.730Z,23.53
2019-03-03T05:01:05.342Z,23.20
2019-03-03T05:06:06.909Z,22.73
2019-03-03T05:11:08.455Z,24.27
2019-03-03T05:16:10.012Z,22.63
2019-03-03T05:21:14.715Z,25.77
2019-03-03T05:26:16.244Z,26.07
2019-03-03T05:31:17.818Z,19.93
2019-03-03T05:36:19.370Z,27.73
2019-03-03T05:41:20.942Z,26.90
2019-03-03T05:46:22.511Z,23.77
2019-03-03T05:51:24.423Z,28.40
2019-03-03T05:56:26.031Z,27.80
2019-03-03T06:01:27.614Z,33.37
2019-03-03T06:06:29.324Z,33.87
2019-03-03T06:11:30.851Z,28.37
2019-03-03T06:16:32.428Z,29.87
2019-03-03T06:21:34.006Z,26.67
2019-03-03T06:26:35.626Z,23.63
2019-03-03T06:31:37.198Z,27.83
2019-03-03T06:36:38.809Z,33.17
2019-03-03T06:41:40.689Z,29.33
2019-03-03T06:46:43.352Z,36.27
2019-03-03T06:51:44.990Z,31.73
2019-03-03T06:56:50.976Z,40.00
2019-03-03T07:01:52.614Z,27.57
2019-03-03T07:06:54.143Z,30.30
2019-03-03T07:11:55.761Z,26.87
2019-03-03T07:16:57.688Z,28.63
2019-03-03T07:21:59.610Z,25.67
2019-03-03T07:27:02.297Z,31.97
2019-03-03T07:32:03.892Z,33.13
2019-03-03T07:37:05.439Z,28.60
2019-03-03T07:42:07.168Z,36.83
2019-03-03T07:47:09.847Z,33.43
2019-03-03T07:52:11.746Z,29.70
2019-03-03T07:57:13.298Z,27.47
2019-03-03T08:02:14.895Z,31.80
2019-03-03T08:07:16.802Z,33.47
2019-03-03T08:12:18.407Z,33.87
2019-03-03T08:17:20.069Z,28.77
2019-03-03T08:22:21.720Z,33.93
2019-03-03T08:27:23.416Z,33.00
2019-03-03T08:32:25.129Z,29.57
2019-03-03T08:37:26.698Z,30.03
2019-03-03T08:42:28.289Z,26.90
2019-03-03T08:47:31.152Z,24.70
2019-03-03T08:52:32.728Z,22.70
2019-03-03T08:57:34.377Z,26.00
2019-03-03T09:02:35.931Z,22.67
2019-03-03T09:07:37.595Z,26.03
2019-03-03T09:12:39.182Z,24.60
2019-03-03T09:17:40.789Z,27.67
2019-03-03T09:22:42.493Z,24.93
2019-03-03T09:27:44.080Z,21.30
2019-03-03T09:32:45.671Z,20.10
2019-03-03T09:37:47.376Z,17.63
2019-03-03T09:42:48.943Z,22.70
2019-03-03T09:47:50.951Z,18.33
2019-03-03T09:52:52.678Z,16.63
2019-03-03T09:57:54.825Z,15.90
2019-03-03T10:02:56.394Z,16.67
2019-03-03T10:07:57.968Z,16.50
2019-03-03T10:12:59.569Z,16.90
2019-03-03T10:18:01.187Z,16.03
2019-03-03T10:23:02.773Z,14.30
2019-03-03T10:28:04.349Z,11.90
2019-03-03T10:33:05.964Z,15.47
2019-03-03T10:38:07.594Z,14.20
2019-03-03T10:43:09.226Z,20.87
2019-03-03T10:48:10.922Z,15.60
2019-03-03T10:53:12.548Z,15.93
2019-03-03T10:58:14.114Z,9.37
2019-03-03T11:03:15.769Z,12.00
2019-03-03T11:08:17.378Z,15.60
2019-03-03T11:13:18.954Z,17.60
2019-03-03T11:18:20.959Z,17.37
2019-03-03T11:23:22.530Z,14.90
2019-03-03T11:28:24.848Z,15.63
2019-03-03T11:33:26.463Z,14.37
2019-03-03T11:38:28.373Z,11.93
2019-03-03T11:43:29.940Z,15.60
2019-03-03T11:48:31.527Z,13.20
2019-03-03T11:53:33.140Z,11.47
2019-03-03T11:58:34.659Z,14.77
2019-03-03T12:03:36.694Z,18.47
2019-03-03T12:08:38.255Z,15.50
2019-03-03T12:13:39.914Z,26.67
2019-03-03T12:18:41.870Z,20.77
2019-03-03T12:23:43.503Z,18.73
2019-03-03T12:28:45.118Z,21.13
2019-03-03T12:33:46.661Z,19.10
2019-03-03T12:38:48.676Z,24.33
2019-03-03T12:43:50.262Z,21.43
2019-03-03T12:48:52.224Z,27.53
2019-03-03T12:53:54.118Z,28.00
2019-03-03T12:58:55.711Z,25.20
2019-03-03T13:03:57.309Z,19.97
2019-03-03T13:08:59.773Z,21.70
2019-03-03T13:14:01.727Z,23.33
2019-03-03T13:19:03.381Z,19.87
2019-03-03T13:24:05.125Z,23.90
2019-03-03T13:29:06.712Z,24.53
2019-03-03T13:34:08.334Z,24.00
2019-03-03T13:39:10.571Z,23.77
2019-03-03T13:44:12.326Z,22.73
2019-03-03T13:49:13.907Z,30.30
2019-03-03T13:54:15.538Z,27.30
2019-03-03T13:59:17.160Z,22.17
2019-03-03T14:04:18.744Z,27.10
2019-03-03T14:09:20.773Z,21.30
2019-03-03T14:14:23.074Z,22.30
2019-03-03T14:19:24.683Z,20.23
2019-03-03T14:24:26.303Z,21.63
2019-03-03T14:29:30.920Z,23.00
2019-03-03T14:34:32.982Z,24.17
2019-03-03T14:39:34.853Z,22.13
2019-03-03T14:44:36.397Z,24.67
2019-03-03T14:49:38.047Z,22.47
2019-03-03T14:54:40.065Z,21.63
2019-03-03T14:59:42.024Z,21.10
2019-03-03T15:04:43.681Z,25.47
2019-03-03T15:09:47.811Z,20.53
2019-03-03T15:14:49.744Z,28.33
2019-03-03T15:19:52.472Z,25.47
2019-03-03T15:24:54.298Z,23.20
2019-03-03T15:29:55.965Z,20.17
2019-03-03T15:34:58.041Z,26.77
2019-03-03T15:39:59.713Z,22.50
2019-03-03T15:45:01.661Z,21.77
2019-03-03T15:50:03.738Z,21.50
2019-03-03T15:55:06.828Z,21.63
2019-03-03T16:00:16.835Z,32.47
2019-03-03T16:05:19.027Z,23.60
2019-03-03T16:10:20.653Z,18.43
2019-03-03T16:15:23.681Z,24.67
2019-03-03T16:20:25.240Z,22.47
2019-03-03T16:25:26.890Z,23.03
2019-03-03T16:30:28.536Z,20.03
2019-03-03T16:35:30.135Z,24.43
2019-03-03T16:40:39.246Z,17.43
2019-03-03T16:45:36.791Z,22.97
2019-03-03T16:50:38.373Z,17.47
2019-03-03T16:55:40.063Z,17.57
2019-03-03T17:00:41.722Z,24.03
2019-03-03T17:05:44.532Z,20.40
2019-03-03T17:10:46.223Z,19.57
2019-03-03T17:15:47.929Z,19.90
2019-03-03T17:20:49.614Z,19.23
2019-03-03T17:25:51.198Z,17.00
2019-03-03T17:30:52.973Z,20.50
2019-03-03T17:35:54.619Z,19.33
2019-03-03T17:40:56.704Z,16.43
2019-03-03T17:45:58.262Z,13.87
2019-03-03T17:51:00.246Z,22.93
2019-03-03T17:56:02.343Z,17.00
2019-03-03T18:01:04.431Z,15.87
2019-03-03T18:06:06.109Z,23.43
2019-03-03T18:11:07.782Z,17.33
2019-03-03T18:16:09.417Z,19.30
2019-03-03T18:21:11.509Z,15.20
2019-03-03T18:26:15.831Z,18.20
2019-03-03T18:31:18.713Z,19.33
2019-03-03T18:36:20.444Z,17.70
2019-03-03T18:41:22.205Z,21.30
2019-03-03T18:46:24.447Z,20.00
2019-03-03T18:51:26.132Z,22.10
2019-03-03T18:56:27.716Z,14.23
2019-03-03T19:01:29.318Z,18.03
2019-03-03T19:06:31.007Z,14.17
2019-03-03T19:11:33.102Z,20.43
2019-03-03T19:16:35.368Z,19.30
2019-03-03T19:21:37.053Z,15.97
2019-03-03T19:26:38.966Z,15.43
2019-03-03T19:31:40.745Z,16.07
2019-03-03T19:36:42.499Z,13.30
2019-03-03T19:41:44.054Z,12.10
2019-03-03T19:46:45.608Z,10.57
2019-03-03T19:51:47.343Z,9.40
2019-03-03T19:56:49.610Z,9.50
2019-03-03T20:01:52.077Z,9.97
2019-03-03T20:06:53.708Z,9.27
2019-03-03T20:11:55.689Z,12.33
2019-03-03T20:16:57.664Z,10.73
2019-03-03T20:21:59.580Z,11.90
2019-03-03T20:27:01.338Z,17.07
2019-03-03T20:32:03.212Z,12.73
2019-03-03T20:37:04.900Z,12.43
2019-03-03T20:42:06.564Z,11.27
2019-03-03T20:47:08.242Z,14.17
2019-03-03T20:52:09.825Z,10.83
2019-03-03T20:57:11.405Z,12.57
2019-03-03T21:02:13.019Z,11.10
2019-03-03T21:07:14.626Z,12.30
2019-03-03T21:12:16.213Z,13.23
2019-03-03T21:17:17.841Z,12.77
2019-03-03T21:22:19.503Z,9.03
2019-03-03T21:27:21.208Z,9.67
2019-03-03T21:32:22.772Z,13.07
2019-03-03T21:37:24.851Z,14.77
2019-03-03T21:42:26.412Z,13.27
2019-03-03T21:47:28.481Z,12.67
2019-03-03T21:52:30.078Z,15.57
2019-03-03T21:57:31.993Z,9.63
2019-03-03T22:02:33.635Z,10.77
2019-03-03T22:07:35.234Z,10.97
2019-03-03T22:12:36.841Z,9.13
2019-03-03T22:17:38.442Z,10.23
2019-03-03T22:22:40.055Z,10.87
2019-03-03T22:27:42.026Z,8.63
2019-03-03T22:32:43.625Z,7.97
2019-03-03T22:37:45.844Z,7.53
2019-03-03T22:42:47.449Z,11.03
2019-03-03T22:47:49.023Z,9.10
2019-03-03T22:52:50.632Z,8.10
2019-03-03T22:57:52.184Z,6.80
2019-03-03T23:02:54.032Z,4.93
2019-03-03T23:08:32.896Z,6.83
2019-03-03T23:14:11.652Z,8.50
2019-03-03T23:19:48.213Z,5.10
2019-03-03T23:25:38.593Z,7.83
2019-03-03T23:30:40.563Z,6.93
2019-03-03T23:35:42.703Z,6.03
2019-03-03T23:40:44.260Z,6.37
2019-03-03T23:45:46.401Z,5.87
2019-03-03T23:50:47.989Z,8.17
2019-03-03T23:55:49.550Z,5.07
